Portada
METAR-TAF:

METAR-TAF

Aeroports :

Cherbourg, França

latitud: 49-39N, longitud: 001-28W, altitud: 138 m

Observació

L'informe es va fer fa 12 minuts, a les 21:00 UTC
Vent 17 kt del Nord amb ràfegues de 28 kt, variant entre Nord-Oest i Nord/Nord-Est
Temperatura 7°C
Humitat 87%
Pressió 1000 hPa
Visibilitat 10 km o més
Cel ennuvolat a una alçada de 1400 ft
Cel cobert a una alçada de 2100 ft
pluja

METAR: LFRC 152100Z AUTO 35017G28KT 320V020 9999 -RA BKN014 OVC021 07/05 Q1000

Hora: 22:12 (21:12 UTC)

Pronòstic

L'informe es va fer fa 7 hores i 12 minuts, a les 14:00 UTC
Pronòstic vàlid del 15 a les 15 UTC al 15 a les 24 UTC
Vent 15 kt del Nord amb ràfegues de 30 kt
Visibilitat 10 km o més
Cel ennuvolat a una alçada de 2000 ft
Temporalment
l' 15 a les 15 UTC al 15 a les 24 UTC
Visibilitat: 4000 m
Cel ennuvolat a una alçada de 800 ft
Cel ennuvolat a una alçada de 1500 ft, Cumulonimbus.
xàfecs de pluja

TAF: LFRC 151400Z 1515/1524 01015G30KT 9999 BKN020 TEMPO 1515/1524 4000 SHRA BKN008 BKN015CB

Observacions i pronòstics meteorològics de més de 4000 aeroports (METAR i TAF).

Les estacions disponibles són els punts grocs i vermells al mapa.

Posi el ratolí al punt desitjat per veure el nom de l'estació.

Feu clic per veure les observacions i els pronòstics meteorològics.

Per canviar el mapa: feu clic els botons verds amb una creu de color negre per apropar; al botó verd amb un guió per allunyar la imatge; o en les fletxes verdes per a mapes adjacents.


METAR-TAF: